Time;durP1;ratioP1;P1;durP2;ratioP2;P2;SDS_P1;SDS_P2;PMS_P1;PMS_P2;Temp;Humidity;BMP_temperature;BMP_pressure;BME280_temperature;BME280_humidity;BME280_pressure;Samples;Min_cycle;Max_cycle;Signal;HPM_P1;HPM_P2
2022/09/04 00:01:11;;;;;;;4.55;4.03;;;;;;;17.93;48.65;100857.22;5106240;28;20115;-28
2022/09/04 00:03:57;;;;;;;4.97;4.25;;;;;;;17.93;48.71;100868.78;5092074;28;20031;-28
2022/09/04 00:06:28;;;;;;;5.05;4.07;;;;;;;17.88;48.87;100864.53;5091939;28;20386;-28
2022/09/04 00:09:06;;;;;;;;;;;;;;;17.86;48.69;100861.03;5088946;28;20125;-28
2022/09/04 00:11:43;;;;;;;4.53;3.65;;;;;;;17.88;48.93;100864.53;5089538;28;20383;-27
2022/09/04 00:14:36;;;;;;;7.18;4.45;;;;;;;17.86;48.54;100853.03;5089970;28;20479;-28
2022/09/04 00:17:05;;;;;;;7.13;4.50;;;;;;;17.87;48.96;100862.81;5073948;28;20244;-28
2022/09/04 00:19:55;;;;;;;4.63;3.88;;;;;;;17.81;48.69;100858.56;5082823;28;20032;-28
2022/09/04 00:22:39;;;;;;;5.13;3.70;;;;;;;17.81;48.83;100864.75;5089896;28;20033;-27
2022/09/04 00:25:13;;;;;;;4.53;4.10;;;;;;;17.77;48.87;100863.13;5092551;28;20032;-28
2022/09/04 00:27:44;;;;;;;3.72;3.38;;;;;;;17.76;48.97;100866.72;5103004;28;20122;-28
2022/09/04 00:30:20;;;;;;;5.07;3.58;;;;;;;17.77;49.10;100862.28;5090724;28;20051;-28
2022/09/04 00:33:18;;;;;;;5.38;4.00;;;;;;;17.77;49.18;100856.94;5091188;28;20046;-28
2022/09/04 00:36:02;;;;;;;5.00;4.10;;;;;;;17.75;49.18;100864.13;5071130;28;20409;-27
2022/09/04 00:38:37;;;;;;;8.50;4.60;;;;;;;17.76;49.08;100860.50;5082415;28;20039;-28
2022/09/04 00:41:12;;;;;;;4.35;3.95;;;;;;;17.73;49.30;100866.84;5084309;28;20039;-27
2022/09/04 00:43:51;;;;;;;4.22;3.80;;;;;;;17.73;49.68;100860.63;5088290;28;20044;-27
2022/09/04 00:46:53;;;;;;;7.00;4.20;;;;;;;17.74;49.59;100857.91;5091802;28;20023;-28
2022/09/04 00:49:29;;;;;;;4.80;4.00;;;;;;;17.73;49.42;100872.16;5090602;28;20024;-28
2022/09/04 00:52:05;;;;;;;4.13;3.83;;;;;;;17.70;49.45;100872.28;5091479;28;20032;-28
2022/09/04 00:54:57;;;;;;;4.50;4.10;;;;;;;17.75;49.51;100869.44;5089034;28;20028;-28
2022/09/04 00:57:57;;;;;;;4.55;4.15;;;;;;;17.72;49.33;100870.44;5087723;28;20071;-27
2022/09/04 01:00:24;;;;;;;4.70;3.95;;;;;;;17.69;49.39;100873.22;5088329;28;20027;-28
2022/09/04 01:03:14;;;;;;;5.05;3.95;;;;;;;17.73;49.95;100871.28;5089626;28;20024;-28
2022/09/04 01:05:48;;;;;;;6.15;4.03;;;;;;;17.67;49.43;100883.03;5091910;28;20048;-28
2022/09/04 01:08:40;;;;;;;4.25;3.85;;;;;;;17.67;49.65;100883.03;5090236;28;20032;-27
2022/09/04 01:11:31;;;;;;;5.18;4.68;;;;;;;17.65;49.60;100879.59;5085679;28;20035;-28
2022/09/04 01:14:18;;;;;;;4.70;4.20;;;;;;;17.64;49.68;100893.84;5091608;28;20028;-28
2022/09/04 01:16:48;;;;;;;4.90;4.40;;;;;;;17.65;49.57;100885.81;5089476;28;20526;-28
2022/09/04 01:19:42;;;;;;;5.13;3.92;;;;;;;17.64;49.68;100891.19;5089412;28;20039;-27
2022/09/04 01:22:13;;;;;;;5.63;4.35;;;;;;;17.66;49.67;100895.53;5087026;28;20024;-27
2022/09/04 01:24:53;;;;;;;5.93;5.03;;;;;;;17.65;49.79;100895.59;5091759;28;20031;-28
2022/09/04 01:27:29;;;;;;;6.07;4.75;;;;;;;17.68;50.52;100903.47;5087488;28;20072;-28
2022/09/04 01:30:10;;;;;;;5.10;4.60;;;;;;;17.62;49.62;100901.91;5088640;28;20016;-27
2022/09/04 01:32:58;;;;;;;4.68;4.28;;;;;;;17.67;50.43;100909.72;5081688;28;20162;-28
2022/09/04 01:35:33;;;;;;;4.32;3.92;;;;;;;17.60;49.98;100909.06;5090238;28;20467;-28
2022/09/04 01:38:11;;;;;;;4.30;3.90;;;;;;;17.61;49.73;100913.47;5088291;28;20028;-27
2022/09/04 01:41:10;;;;;;;5.05;4.05;;;;;;;17.57;49.96;100918.06;5090247;28;20048;-27
2022/09/04 01:43:35;;;;;;;5.47;4.45;;;;;;;17.56;49.92;100915.44;5072281;28;20036;-27
2022/09/04 01:46:07;;;;;;;4.75;3.72;;;;;;;17.59;50.17;100923.34;5089543;28;20026;-28
2022/09/04 01:48:49;;;;;;;4.78;4.22;;;;;;;17.57;49.96;100925.16;5088408;28;20548;-27
2022/09/04 01:51:39;;;;;;;5.15;4.10;;;;;;;17.55;49.99;100922.56;5089917;28;20028;-28
2022/09/04 01:54:36;;;;;;;5.30;4.50;;;;;;;17.56;49.75;100919.00;5095093;28;20475;-27
2022/09/04 01:57:23;;;;;;;3.92;3.63;;;;;;;17.53;50.00;100918.22;5086611;28;20055;-28
2022/09/04 01:59:54;;;;;;;4.97;4.28;;;;;;;17.60;50.57;100919.75;5095537;28;20082;-27
2022/09/04 02:02:42;;;;;;;4.50;4.15;;;;;;;17.52;50.04;100920.03;5094433;28;20047;-28
2022/09/04 02:05:20;;;;;;;6.38;4.57;;;;;;;17.52;50.10;100922.69;5093699;28;20024;-27
2022/09/04 02:08:10;;;;;;;4.93;4.53;;;;;;;17.57;50.43;100931.38;5090929;28;20032;-28
2022/09/04 02:10:57;;;;;;;6.18;4.72;;;;;;;17.50;50.11;100929.84;5085606;28;20024;-27
2022/09/04 02:13:22;;;;;;;4.10;3.80;;;;;;;17.50;50.36;100927.19;5094821;28;20449;-27
2022/09/04 02:16:14;;;;;;;4.77;4.27;;;;;;;17.47;50.38;100932.63;5092514;28;20497;-28
2022/09/04 02:19:04;;;;;;;4.72;4.30;;;;;;;17.53;50.67;100937.75;5092634;28;20072;-28
2022/09/04 02:21:39;;;;;;;4.60;4.20;;;;;;;17.52;50.41;100933.34;5094601;28;20061;-28
2022/09/04 02:24:20;;;;;;;4.30;4.00;;;;;;;17.56;50.23;100932.31;5095097;28;20032;-27
2022/09/04 02:27:08;;;;;;;4.93;4.53;;;;;;;17.52;50.39;100933.34;5094789;28;20044;-28
2022/09/04 02:29:47;;;;;;;4.90;4.43;;;;;;;17.54;50.42;100939.50;5076643;28;20024;-27
2022/09/04 02:32:36;;;;;;;4.28;3.90;;;;;;;17.47;50.67;100940.63;5092397;28;20116;-28
2022/09/04 02:35:20;;;;;;;4.93;4.30;;;;;;;17.48;50.99;100938.84;5090992;28;20026;-28
2022/09/04 02:38:01;;;;;;;6.28;4.68;;;;;;;17.52;51.13;100938.69;5091837;28;20042;-28
2022/09/04 02:40:53;;;;;;;6.78;5.13;;;;;;;17.47;50.65;100934.44;5092570;28;20028;-28
2022/09/04 02:43:50;;;;;;;5.47;4.20;;;;;;;17.48;50.45;100933.50;5088316;28;20036;-28
2022/09/04 02:46:25;;;;;;;4.78;4.35;;;;;;;17.43;50.43;100934.53;5081295;28;20089;-28
2022/09/04 02:49:01;;;;;;;4.88;4.38;;;;;;;17.48;50.66;100934.38;5087323;28;20028;-28
2022/09/04 02:52:00;;;;;;;5.10;4.68;;;;;;;17.43;50.88;100934.53;5091373;28;20040;-28
2022/09/04 02:55:03;;;;;;;6.18;4.50;;;;;;;17.50;50.90;100940.53;5088384;28;20039;-28
2022/09/04 02:57:47;;;;;;;4.85;4.35;;;;;;;17.46;51.35;100933.56;5086106;28;20020;-28
2022/09/04 03:00:16;;;;;;;4.40;3.80;;;;;;;17.39;50.65;100937.34;5088071;28;20044;-27
2022/09/04 03:03:04;;;;;;;6.18;4.43;;;;;;;17.42;51.33;100937.25;5092518;28;20016;-28
2022/09/04 03:05:32;;;;;;;5.00;4.55;;;;;;;17.42;51.13;100943.47;5092869;28;20036;-27
2022/09/04 03:08:04;;;;;;;4.68;4.10;;;;;;;17.42;51.04;100939.91;5088756;28;20028;-28
2022/09/04 03:11:19;;;;;;;4.80;4.40;;;;;;;17.33;50.99;100937.56;5089042;28;20042;-27
2022/09/04 03:13:52;;;;;;;6.72;4.40;;;;;;;17.32;51.04;100936.69;5077624;28;20048;-27
2022/09/04 03:16:40;;;;;;;5.30;4.82;;;;;;;17.30;51.29;100939.41;5089662;28;20498;-28
2022/09/04 03:19:18;;;;;;;5.18;4.68;;;;;;;17.28;51.23;100929.72;5088168;28;20028;-28
2022/09/04 03:22:09;;;;;;;5.60;4.43;;;;;;;17.24;51.46;100928.94;5087154;28;20505;-27
2022/09/04 03:25:00;;;;;;;7.03;4.70;;;;;;;17.24;51.56;100934.25;5090499;28;20605;-28
2022/09/04 03:27:26;;;;;;;4.95;4.55;;;;;;;17.22;51.33;100936.13;5080640;28;20071;-28
2022/09/04 03:30:02;;;;;;;5.35;4.72;;;;;;;17.18;51.17;100929.16;5092522;28;20115;-27
2022/09/04 03:32:33;;;;;;;6.03;4.80;;;;;;;17.17;51.36;100922.06;5090511;28;20107;-28
2022/09/04 03:35:22;;;;;;;6.97;5.10;;;;;;;17.16;51.91;100922.97;5091505;28;20433;-28
2022/09/04 03:37:57;;;;;;;5.72;5.05;;;;;;;17.12;51.76;100929.34;5090072;28;20466;-28
2022/09/04 03:40:26;;;;;;;6.03;4.90;;;;;;;17.07;51.75;100933.97;5091041;28;20024;-28
2022/09/04 03:43:15;;;;;;;5.30;4.90;;;;;;;17.09;51.61;100935.66;5093066;28;20048;-28
2022/09/04 03:45:58;;;;;;;5.07;4.68;;;;;;;17.05;51.53;100940.19;5091678;28;20472;-27
2022/09/04 03:48:32;;;;;;;8.98;4.82;;;;;;;17.00;51.44;100942.09;5091375;28;20510;-28
2022/09/04 03:51:23;;;;;;;5.35;4.85;;;;;;;16.97;51.75;100941.34;5090726;28;20033;-28
2022/09/04 03:54:22;;;;;;;8.70;5.78;;;;;;;16.96;51.81;100947.56;5087616;28;20021;-27
2022/09/04 03:57:06;;;;;;;5.53;5.03;;;;;;;16.90;51.73;100948.63;5092235;28;20422;-27
2022/09/04 03:59:43;;;;;;;7.20;5.22;;;;;;;16.90;51.86;100954.84;5093136;28;20055;-27
2022/09/04 04:02:18;;;;;;;5.45;4.95;;;;;;;16.89;51.91;100954.88;5083298;28;20442;-27
2022/09/04 04:04:59;;;;;;;5.97;5.38;;;;;;;16.83;52.01;100961.28;5090789;28;20031;-28
2022/09/04 04:07:37;;;;;;;5.43;4.93;;;;;;;16.81;51.91;100965.78;5090848;28;20020;-27
2022/09/04 04:10:29;;;;;;;5.95;5.45;;;;;;;16.79;51.75;100965.84;5092982;28;20042;-27
2022/09/04 04:13:15;;;;;;;6.90;5.15;;;;;;;16.77;52.11;100969.44;5089165;28;20043;-27
2022/09/04 04:15:49;;;;;;;6.25;5.65;;;;;;;16.73;51.92;100971.34;5092281;28;20028;-28
2022/09/04 04:18:23;;;;;;;5.35;4.85;;;;;;;16.74;51.94;100980.22;5091320;28;20036;-28
2022/09/04 04:20:58;;;;;;;7.75;5.40;;;;;;;16.73;52.24;100982.00;5090725;28;20489;-28
2022/09/04 04:24:06;;;;;;;6.13;5.53;;;;;;;16.71;51.90;100993.63;5089685;28;20039;-28
2022/09/04 04:26:48;;;;;;;5.43;4.93;;;;;;;16.66;52.02;100994.63;5089656;28;20498;-27
2022/09/04 04:29:45;;;;;;;5.13;4.65;;;;;;;16.64;51.76;100992.94;5091458;28;20027;-27
2022/09/04 04:32:13;;;;;;;6.85;5.70;;;;;;;16.58;52.10;101003.75;5089836;28;20028;-27
2022/09/04 04:34:46;;;;;;;5.47;4.97;;;;;;;16.57;51.77;100999.34;5092235;28;20027;-27
2022/09/04 04:37:25;;;;;;;5.55;5.05;;;;;;;16.49;51.66;101010.22;5089702;28;20027;-27
2022/09/04 04:39:58;;;;;;;7.03;5.35;;;;;;;16.44;51.58;101017.47;5091562;28;20024;-27
2022/09/04 04:42:35;;;;;;;6.63;5.80;;;;;;;16.36;51.81;101018.56;5087527;28;20024;-28
2022/09/04 04:48:13;;;;;;;6.30;4.90;;;;;;;16.25;51.80;101028.63;5090154;28;20054;-27
2022/09/04 04:51:16;;;;;;;5.95;5.35;;;;;;;16.23;51.68;101026.00;5091674;28;20050;-27
2022/09/04 04:54:05;;;;;;;5.57;5.07;;;;;;;16.21;51.97;101037.59;5091474;28;20059;-28
2022/09/04 04:56:44;;;;;;;5.47;4.63;;;;;;;16.13;51.87;101045.78;5089350;28;20031;-28
2022/09/04 04:59:23;;;;;;;6.10;5.50;;;;;;;16.13;52.00;101037.78;5083064;28;20541;-27
2022/09/04 05:02:06;;;;;;;6.30;5.38;;;;;;;16.14;52.56;101036.91;5087186;28;20027;-28
2022/09/04 05:04:40;;;;;;;5.30;4.65;;;;;;;16.11;52.42;101039.66;5084270;28;20506;-28
2022/09/04 05:07:18;;;;;;;5.22;4.72;;;;;;;16.05;52.57;101034.47;5089388;28;20394;-27
2022/09/04 05:09:49;;;;;;;5.85;5.18;;;;;;;16.00;52.89;101045.22;5089195;28;20051;-28
2022/09/04 05:12:27;;;;;;;5.88;5.10;;;;;;;15.99;52.71;101051.47;5086574;28;20062;-27
2022/09/04 05:15:14;;;;;;;5.25;4.78;;;;;;;15.99;52.65;101055.00;5088573;28;20119;-28
2022/09/04 05:17:50;;;;;;;4.93;4.47;;;;;;;15.98;52.94;101053.28;5088605;28;20107;-28
2022/09/04 05:20:36;;;;;;;5.70;4.85;;;;;;;15.99;52.47;101054.13;5086726;28;20042;-28
2022/09/04 05:23:24;;;;;;;5.75;5.07;;;;;;;15.97;52.51;101056.81;5088248;28;20056;-28
2022/09/04 05:26:26;;;;;;;6.10;4.63;;;;;;;15.97;52.56;101066.59;5079395;28;20089;-28
2022/09/04 05:29:26;;;;;;;7.63;5.18;;;;;;;16.00;52.89;101062.06;5084405;28;20030;-27
2022/09/04 05:32:00;;;;;;;6.85;4.78;;;;;;;15.91;52.55;101062.28;5084709;28;20036;-27
2022/09/04 05:35:07;;;;;;;5.65;4.93;;;;;;;15.95;53.02;101073.72;5084889;28;20031;-28
2022/09/04 05:37:50;;;;;;;5.45;4.82;;;;;;;15.87;53.10;101071.25;5078609;28;20032;-28
2022/09/04 05:40:18;;;;;;;5.80;4.70;;;;;;;15.85;53.18;101073.06;5088299;28;20020;-28
2022/09/04 05:43:09;;;;;;;7.10;5.82;;;;;;;15.89;53.10;101074.72;5087727;28;20388;-28
2022/09/04 05:45:55;;;;;;;7.07;4.93;;;;;;;15.86;52.90;101080.13;5084721;28;20399;-28
2022/09/04 05:48:25;;;;;;;5.93;4.90;;;;;;;15.86;53.35;101085.44;5079993;28;20438;-28
2022/09/04 05:51:11;;;;;;;5.40;4.45;;;;;;;15.88;53.20;101088.94;5083657;28;20394;-28
2022/09/04 05:53:47;;;;;;;6.80;4.90;;;;;;;15.91;53.47;101084.41;5076519;28;20092;-28
2022/09/04 05:56:24;;;;;;;6.03;4.80;;;;;;;15.93;53.10;101091.50;5071461;28;20031;-28
2022/09/04 05:58:56;;;;;;;6.57;5.15;;;;;;;15.92;53.28;101087.97;5087088;28;20482;-27
2022/09/04 06:01:58;;;;;;;5.68;4.80;;;;;;;15.92;53.37;101085.31;5084489;28;20919;-27
2022/09/04 06:04:42;;;;;;;6.78;5.25;;;;;;;15.97;53.35;101094.06;5084860;28;20024;-28
2022/09/04 06:07:19;;;;;;;5.63;5.07;;;;;;;16.01;53.36;101100.19;5085996;28;20020;-27
2022/09/04 06:09:50;;;;;;;6.80;5.22;;;;;;;15.99;53.58;101097.56;5086682;28;20055;-28
2022/09/04 06:12:37;;;;;;;5.43;4.93;;;;;;;16.01;53.96;101089.56;5083934;28;20024;-28
2022/09/04 06:15:29;;;;;;;5.38;4.88;;;;;;;16.04;54.33;101100.09;5097269;28;20038;-28
2022/09/04 06:18:07;;;;;;;7.93;4.90;;;;;;;16.07;53.84;101109.81;5083803;28;20063;-28
2022/09/04 06:21:06;;;;;;;6.00;5.40;;;;;;;16.12;54.46;101107.91;5086992;28;20054;-28
2022/09/04 06:23:38;;;;;;;7.03;5.43;;;;;;;16.19;56.29;101109.50;5080864;28;20059;-28
2022/09/04 06:26:26;;;;;;;5.90;5.32;;;;;;;16.24;54.64;101112.91;5080577;28;20016;-28
2022/09/04 06:29:17;;;;;;;5.43;4.93;;;;;;;16.26;55.73;101105.75;5078727;28;20028;-28
2022/09/04 06:31:55;;;;;;;6.32;5.55;;;;;;;16.28;56.11;101113.72;5082843;28;20032;-28
2022/09/04 06:34:31;;;;;;;5.85;5.25;;;;;;;16.34;56.27;101115.34;5085884;28;20028;-28
2022/09/04 06:37:09;;;;;;;6.20;5.63;;;;;;;16.42;55.91;101116.00;5084971;28;20028;-27
2022/09/04 06:39:56;;;;;;;7.30;6.07;;;;;;;16.42;56.64;101116.88;5090985;28;20039;-28
2022/09/04 06:42:27;;;;;;;6.22;5.63;;;;;;;16.49;56.48;101116.69;5086999;28;20024;-28
2022/09/04 06:45:05;;;;;;;;;;;;;;;16.53;57.03;101108.59;5093994;28;20067;-27
2022/09/04 06:48:09;;;;;;;6.03;5.40;;;;;;;16.58;57.02;101105.81;5082597;28;19940;-28
2022/09/04 06:50:50;;;;;;;6.63;6.00;;;;;;;16.64;56.75;101110.97;5087641;28;20487;-28
2022/09/04 06:53:35;;;;;;;6.43;5.82;;;;;;;16.75;56.65;101118.66;5093517;28;20062;-28
2022/09/04 06:56:00;;;;;;;6.75;5.97;;;;;;;16.82;55.04;101118.47;5092474;28;20115;-28
2022/09/04 06:58:46;;;;;;;7.23;6.50;;;;;;;16.85;56.60;101134.38;5088182;28;20532;-28
2022/09/04 07:01:16;;;;;;;7.28;6.20;;;;;;;16.95;55.92;101135.88;5085461;28;20032;-28
2022/09/04 07:04:12;;;;;;;8.55;6.18;;;;;;;17.01;56.18;101135.69;5087344;28;20419;-27
2022/09/04 07:06:48;;;;;;;7.10;6.50;;;;;;;17.04;56.18;101130.25;5089166;28;20036;-28
2022/09/04 07:09:24;;;;;;;6.53;5.93;;;;;;;17.12;55.06;101139.88;5087542;28;20024;-28
2022/09/04 07:12:27;;;;;;;7.60;6.90;;;;;;;17.16;55.91;101149.50;5092148;28;20020;-28
2022/09/04 07:15:11;;;;;;;7.47;5.95;;;;;;;17.23;55.30;101150.19;5079815;28;20032;-28
2022/09/04 07:18:05;;;;;;;7.05;6.45;;;;;;;17.27;56.08;101149.22;5087878;28;20023;-28
2022/09/04 07:20:36;;;;;;;8.10;6.65;;;;;;;17.34;54.57;101150.75;5091311;28;20039;-28
2022/09/04 07:23:07;;;;;;;;;;;;;;;17.39;55.08;101153.28;5094433;28;20051;-27
2022/09/04 07:25:48;;;;;;;;;;;;;;;17.45;55.38;101155.78;5093693;28;19942;-28
2022/09/04 07:28:41;;;;;;;6.88;5.85;;;;;;;17.51;55.81;101154.72;5091212;28;20306;-28
2022/09/04 07:31:28;;;;;;;7.10;6.40;;;;;;;17.60;55.30;101153.56;5088796;28;20027;-27
2022/09/04 07:34:08;;;;;;;6.40;5.63;;;;;;;17.67;56.11;101149.75;5093577;28;20089;-27
2022/09/04 07:36:43;;;;;;;7.13;6.47;;;;;;;17.74;55.44;101164.66;5098423;28;20063;-28
2022/09/04 07:39:29;;;;;;;7.22;6.53;;;;;;;17.78;56.52;101152.97;5089958;28;20027;-28
2022/09/04 07:42:03;;;;;;;6.70;6.10;;;;;;;17.88;55.53;101160.69;5099933;28;20475;-28
2022/09/04 07:44:37;;;;;;;7.07;6.43;;;;;;;17.96;55.27;101155.97;5090253;28;20027;-28
2022/09/04 07:47:15;;;;;;;7.55;6.85;;;;;;;18.06;55.13;101157.44;5085922;28;20652;-28
2022/09/04 07:49:50;;;;;;;7.35;6.65;;;;;;;18.07;55.89;101164.50;5083275;28;20050;-27
2022/09/04 07:52:25;;;;;;;7.82;7.13;;;;;;;18.17;55.82;101164.25;5093760;28;20027;-27
2022/09/04 07:55:09;;;;;;;8.27;6.72;;;;;;;18.34;54.96;101166.31;5091580;28;20027;-28
2022/09/04 07:58:03;;;;;;;9.23;6.07;;;;;;;18.47;54.61;101177.47;5089277;28;20479;-28
2022/09/04 08:00:34;;;;;;;7.53;6.82;;;;;;;18.56;55.02;101174.50;5089493;28;20557;-28
2022/09/04 08:03:30;;;;;;;7.07;6.35;;;;;;;18.74;54.87;101174.75;5091723;28;20028;-28
2022/09/04 08:06:12;;;;;;;7.13;6.53;;;;;;;18.84;54.56;101184.19;5092179;28;20050;-28
2022/09/04 08:09:03;;;;;;;7.93;7.22;;;;;;;18.92;55.16;101183.03;5090956;28;20433;-27
2022/09/04 08:11:53;;;;;;;7.40;6.70;;;;;;;19.13;54.07;101181.41;5091513;28;20024;-28
2022/09/04 08:14:26;;;;;;;7.63;6.85;;;;;;;19.17;54.71;101187.53;5090076;28;20032;-28
2022/09/04 08:17:23;;;;;;;7.25;6.55;;;;;;;19.29;54.80;101191.53;5091333;28;20020;-28
2022/09/04 08:20:01;;;;;;;7.05;6.45;;;;;;;19.45;54.12;101198.06;5085218;28;20032;-27
2022/09/04 08:22:35;;;;;;;8.02;6.45;;;;;;;19.53;54.21;101195.06;5092920;28;20055;-28
2022/09/04 08:25:06;;;;;;;7.15;6.45;;;;;;;19.67;54.33;101199.03;5091203;28;20024;-27
2022/09/04 08:27:53;;;;;;;8.40;6.60;;;;;;;19.80;53.76;101208.31;5092066;28;20128;-27
2022/09/04 08:30:19;;;;;;;7.90;6.35;;;;;;;19.86;53.88;101205.41;5074527;28;20025;-28
2022/09/04 08:33:18;;;;;;;7.75;6.97;;;;;;;20.03;53.56;101203.00;5075460;28;20040;-28
2022/09/04 08:36:00;;;;;;;7.18;6.47;;;;;;;20.13;53.06;101201.69;5091711;28;20039;-28
2022/09/04 08:39:02;;;;;;;6.65;6.00;;;;;;;20.26;53.09;101215.44;5089979;28;20056;-28
2022/09/04 08:41:34;;;;;;;8.85;6.65;;;;;;;20.37;53.04;101217.66;5092719;28;20360;-27
2022/09/04 08:44:12;;;;;;;6.35;5.75;;;;;;;20.48;52.61;101214.56;5091345;28;20031;-28
2022/09/04 08:47:00;;;;;;;6.20;5.60;;;;;;;20.58;52.40;101221.25;5091175;28;20118;-27
2022/09/04 08:49:44;;;;;;;6.07;5.57;;;;;;;20.62;52.92;101222.00;5091539;28;20509;-28
2022/09/04 08:52:43;;;;;;;8.32;6.70;;;;;;;20.72;52.30;101222.47;5092023;28;20028;-28
2022/09/04 08:55:30;;;;;;;6.50;5.90;;;;;;;20.81;52.50;101222.06;5088830;28;20398;-28
2022/09/04 08:58:32;;;;;;;6.95;6.30;;;;;;;20.90;52.20;101228.88;5090070;28;20487;-28
2022/09/04 09:01:14;;;;;;;7.93;7.07;;;;;;;20.97;52.32;101226.81;5090076;28;20059;-27
2022/09/04 09:04:05;;;;;;;7.53;6.40;;;;;;;21.06;52.09;101226.38;5088764;28;20491;-28
2022/09/04 09:07:15;;;;;;;6.75;6.15;;;;;;;21.15;51.78;101230.47;5089600;28;20030;-28
2022/09/04 09:10:08;;;;;;;6.88;6.28;;;;;;;21.19;52.10;101228.50;5014384;28;20030;-28
2022/09/04 09:12:53;;;;;;;7.15;6.43;;;;;;;21.24;51.98;101238.09;4991320;28;20045;-28
2022/09/04 09:15:27;;;;;;;7.25;6.63;;;;;;;21.29;51.85;101235.19;5075791;28;20044;-28
2022/09/04 09:18:16;;;;;;;8.13;6.28;;;;;;;21.32;51.85;101237.75;5089685;28;20505;-27
2022/09/04 09:20:53;;;;;;;6.10;5.60;;;;;;;21.38;51.88;101237.44;5086807;28;20471;-28
2022/09/04 09:23:43;;;;;;;7.18;6.45;;;;;;;21.49;51.83;101234.28;5087585;28;20029;-28
2022/09/04 09:26:11;;;;;;;7.25;6.47;;;;;;;21.62;51.40;101229.22;5086574;28;20026;-28
2022/09/04 09:29:03;;;;;;;7.50;6.18;;;;;;;21.74;51.68;101232.31;5089354;28;20036;-28
2022/09/04 09:31:59;;;;;;;6.43;5.45;;;;;;;21.89;51.48;101228.88;5087227;28;20059;-28
2022/09/04 09:34:53;;;;;;;7.10;6.50;;;;;;;21.93;51.59;101213.47;5085971;28;20300;-28
2022/09/04 09:37:48;;;;;;;9.48;6.55;;;;;;;21.98;52.07;101224.00;5083485;28;20050;-28
2022/09/04 09:40:44;;;;;;;6.53;5.90;;;;;;;22.11;51.38;101214.38;5052654;28;20373;-28
2022/09/04 09:43:40;;;;;;;7.53;6.72;;;;;;;22.27;51.60;101214.50;5091504;28;20039;-28
2022/09/04 09:46:17;;;;;;;6.85;6.25;;;;;;;22.43;51.39;101208.34;5084429;28;20111;-28
2022/09/04 09:49:20;;;;;;;6.18;5.68;;;;;;;22.57;50.87;101213.03;5087943;28;20032;-28
2022/09/04 09:52:28;;;;;;;6.43;5.82;;;;;;;22.64;50.79;101211.78;5087778;28;20039;-27
2022/09/04 09:55:24;;;;;;;10.40;6.80;;;;;;;22.76;50.65;101209.41;5028193;28;20037;-28
2022/09/04 09:58:31;;;;;;;6.90;6.35;;;;;;;22.76;50.89;101206.72;5082527;28;20495;-28
2022/09/04 10:01:21;;;;;;;6.95;6.25;;;;;;;23.02;50.76;101207.16;5089102;28;20081;-28
2022/09/04 10:04:11;;;;;;;6.28;5.78;;;;;;;23.21;50.33;101207.06;5083177;28;20032;-28
2022/09/04 10:07:09;;;;;;;7.32;6.65;;;;;;;23.26;50.54;101213.03;5057215;28;20036;-28
2022/09/04 10:10:07;;;;;;;6.68;6.00;;;;;;;23.47;49.95;101210.16;5083530;28;20055;-28
2022/09/04 10:12:35;;;;;;;8.50;5.60;;;;;;;23.63;49.99;101215.56;5088949;28;20300;-28
2022/09/04 10:15:12;;;;;;;6.03;5.43;;;;;;;23.78;49.61;101210.25;5091997;28;20027;-28
2022/09/04 10:17:51;;;;;;;5.30;4.97;;;;;;;23.93;49.54;101212.09;5090610;28;20066;-28
2022/09/04 10:20:39;;;;;;;6.07;5.40;;;;;;;24.05;49.18;101215.03;5087578;28;20026;-27
2022/09/04 10:23:26;;;;;;;5.85;5.35;;;;;;;24.18;48.83;101202.59;5090979;28;20020;-27
2022/09/04 10:26:07;;;;;;;5.10;4.72;;;;;;;24.32;48.76;101203.63;5083777;28;20032;-27
2022/09/04 10:29:15;;;;;;;5.47;5.07;;;;;;;24.48;48.58;101206.28;5092610;28;20036;-28
2022/09/04 10:32:02;;;;;;;6.35;5.75;;;;;;;24.65;48.10;101204.38;5091317;28;20028;-28
2022/09/04 10:34:56;;;;;;;6.07;5.50;;;;;;;24.79;48.26;101203.53;5093798;28;20024;-28
2022/09/04 10:37:43;;;;;;;5.70;5.20;;;;;;;24.93;47.95;101206.28;5081301;28;20078;-28
2022/09/04 10:40:45;;;;;;;5.95;4.85;;;;;;;25.04;47.68;101207.47;5090391;28;20526;-28
2022/09/04 10:43:27;;;;;;;6.30;5.70;;;;;;;25.12;47.47;101210.53;5085596;28;20034;-28
2022/09/04 10:45:55;;;;;;;7.90;5.55;;;;;;;25.23;47.54;101202.66;5091793;28;20027;-27
2022/09/04 10:48:47;;;;;;;5.97;5.47;;;;;;;25.33;46.96;101208.31;5104306;27;20102;-28
2022/09/04 10:51:50;;;;;;;5.60;5.10;;;;;;;25.55;46.99;101214.19;5091467;28;20118;-27
2022/09/04 10:54:53;;;;;;;8.75;5.65;;;;;;;25.69;46.33;101213.31;5088837;28;20146;-28
2022/09/04 10:57:24;;;;;;;5.53;5.03;;;;;;;25.80;46.15;101215.34;5089435;28;20380;-28
2022/09/04 11:00:01;;;;;;;6.55;5.20;;;;;;;25.89;45.70;101217.41;5089352;28;20055;-27
2022/09/04 11:02:31;;;;;;;5.25;4.70;;;;;;;26.00;45.76;101212.16;5089871;28;20039;-28
2022/09/04 11:05:17;;;;;;;5.13;4.72;;;;;;;26.10;45.27;101214.25;5110882;27;20024;-28
2022/09/04 11:08:17;;;;;;;5.30;4.80;;;;;;;26.26;45.49;101201.47;5081741;28;20166;-28
2022/09/04 11:11:16;;;;;;;5.22;4.82;;;;;;;26.35;45.21;101204.53;5091605;28;20024;-28
2022/09/04 11:14:06;;;;;;;7.10;5.18;;;;;;;26.40;44.72;101196.97;5084142;28;20479;-27
2022/09/04 11:16:50;;;;;;;5.82;5.28;;;;;;;26.54;44.92;101197.88;5084852;28;20024;-28
2022/09/04 11:19:22;;;;;;;5.47;4.90;;;;;;;26.59;44.92;101196.56;5074895;28;20103;-28
2022/09/04 11:21:50;;;;;;;5.45;5.05;;;;;;;26.67;44.25;101204.13;5087849;28;20028;-28
2022/09/04 11:24:40;;;;;;;5.00;4.68;;;;;;;26.77;44.31;101202.53;5093390;28;20050;-28
2022/09/04 11:27:48;;;;;;;6.40;5.32;;;;;;;26.87;44.38;101208.16;5086891;28;20030;-28
2022/09/04 11:30:21;;;;;;;5.20;4.80;;;;;;;26.96;44.06;101198.56;5085759;28;20056;-28
2022/09/04 11:33:05;;;;;;;5.40;4.90;;;;;;;27.00;43.63;101194.66;5081698;28;20047;-28
2022/09/04 11:35:45;;;;;;;5.07;4.60;;;;;;;26.96;43.98;101193.16;5088533;28;20056;-28
2022/09/04 11:38:38;;;;;;;5.25;4.82;;;;;;;26.97;44.06;101194.03;5093742;28;20039;-28
2022/09/04 11:42:02;;;;;;;5.60;5.10;;;;;;;27.07;43.62;101199.66;5090304;28;20311;-28
2022/09/04 11:44:37;;;;;;;5.13;4.72;;;;;;;26.97;43.75;101192.19;5025074;28;20163;-27
2022/09/04 11:47:15;;;;;;;5.47;4.90;;;;;;;27.10;43.76;101199.41;5025703;28;20025;-28
2022/09/04 11:50:15;;;;;;;5.30;4.85;;;;;;;27.22;43.66;101198.56;5059766;28;20039;-28
2022/09/04 11:53:13;;;;;;;6.00;5.50;;;;;;;27.31;43.57;101198.88;5085023;28;20035;-28
2022/09/04 11:55:54;;;;;;;4.82;4.53;;;;;;;27.35;43.54;101195.84;5084624;28;20499;-28
2022/09/04 11:58:19;;;;;;;5.53;5.15;;;;;;;27.48;43.49;101195.78;5087893;28;20441;-28
2022/09/04 12:01:13;;;;;;;6.13;5.53;;;;;;;27.45;43.71;101200.56;5090631;28;20028;-28
2022/09/04 12:04:13;;;;;;;5.15;4.75;;;;;;;27.62;43.51;101196.63;5086179;28;20028;-28
2022/09/04 12:07:07;;;;;;;5.15;4.63;;;;;;;27.66;42.68;101203.56;5089310;28;20446;-28
2022/09/04 12:10:00;;;;;;;5.32;4.85;;;;;;;27.69;42.68;101200.66;5083013;28;20123;-28
2022/09/04 12:12:35;;;;;;;5.38;4.95;;;;;;;27.90;42.93;101192.75;5104304;28;20452;-28
2022/09/04 12:15:53;;;;;;;5.00;4.60;;;;;;;28.00;43.23;101192.94;5087580;28;20115;-28
2022/09/04 12:18:32;;;;;;;5.03;4.72;;;;;;;28.01;42.89;101207.34;5072819;28;20096;-28
2022/09/04 12:21:18;;;;;;;4.70;4.40;;;;;;;27.97;43.04;101198.56;5084147;28;20077;-28
2022/09/04 12:23:58;;;;;;;5.22;4.82;;;;;;;28.15;42.47;101192.75;5082667;28;20044;-28
2022/09/04 12:26:48;;;;;;;4.95;4.47;;;;;;;28.29;42.01;101187.19;5084229;28;20102;-28
2022/09/04 12:29:40;;;;;;;5.60;5.10;;;;;;;28.10;42.39;101184.13;5085600;28;20028;-28
2022/09/04 12:32:26;;;;;;;5.47;4.97;;;;;;;28.28;41.99;101190.00;5083603;28;20033;-28
2022/09/04 12:35:05;;;;;;;4.97;4.60;;;;;;;28.48;42.62;101184.88;5095141;28;20399;-28
2022/09/04 12:37:49;;;;;;;5.07;4.68;;;;;;;28.56;42.33;101187.84;5088290;28;20032;-27
2022/09/04 12:40:24;;;;;;;5.20;4.65;;;;;;;28.52;42.48;101189.09;5092479;28;20020;-28
2022/09/04 12:43:15;;;;;;;4.90;4.60;;;;;;;28.69;42.22;101182.34;5089345;28;20024;-28
2022/09/04 12:46:09;;;;;;;5.72;5.22;;;;;;;28.83;42.33;101183.09;5055821;28;20032;-27
2022/09/04 12:49:03;;;;;;;4.70;4.38;;;;;;;28.94;42.21;101180.41;5090445;28;20027;-28